Flight Track Log - Related Links

Times and Time Zones

All times are in EDT time to prevent confusion due to time zone crossing. See the N831E flight status page for this flight to view local times or setup timezone preferences in your user account.

Time Position Orientation Groundspeed Altitude Reporting Facility
EDT Latitude Longitude Course Direction KTS MPH feet Rate Location/Type
Wed 03:04:24 PM 39.5497 -84.2278 162° South 154 177 1,800  Level Indianapolis Center
Wed 03:06:02 PM 39.4833 -84.2000 162° South 149 171 4,100 1,367 Climbing Cincinnati TRACON
Wed 03:07:02 PM 39.4500 -84.1833 159° South 155 178 5,400 950 Climbing Cincinnati TRACON
Wed 03:08:02 PM 39.4000 -84.1667 166° South 171 197 6,000 300 Climbing Cincinnati TRACON
Wed 03:09:02 PM 39.3500 -84.1500 166° South 204 235 6,000  Level Cincinnati TRACON
Wed 03:09:18 PM 39.3364 -84.1483 175° South 180 207 6,000  Level Indianapolis Center
Wed 03:10:20 PM 39.2803 -84.1247 162° South 198 228 6,000  Level Indianapolis Center
Wed 03:11:22 PM 39.2244 -84.1300 184° South 201 231 6,000  Level Indianapolis Center
Wed 03:12:24 PM 39.1694 -84.1350 184° South 197 227 6,000  Level Indianapolis Center
Wed 03:13:26 PM 39.1072 -84.1414 185° South 191 220 6,000  Level Indianapolis Center
Wed 03:14:27 PM 39.0544 -84.1469 185° South 190 219 6,000  Level Indianapolis Center
Wed 03:15:29 PM 39.0194 -84.1889 223° Southwest 177 204 6,000  Level Indianapolis Center
Wed 03:16:31 PM 38.9914 -84.2406 235° Southwest 175 201 6,000  Level Indianapolis Center
Wed 03:17:33 PM 38.9647 -84.2942 237° Southwest 176 203 6,000  Level Indianapolis Center
Wed 03:18:35 PM 38.9386 -84.3483 238° Southwest 177 204 6,000  Level Indianapolis Center
Wed 03:19:02 PM 38.9167 -84.3833 231° Southwest 178 205 6,000  Level Cincinnati TRACON
Wed 03:20:08 PM 38.9000 -84.4333 247° West 169 194 6,000  Level Cincinnati TRACON
Wed 03:21:08 PM 38.8667 -84.4833 229° Southwest 172 198 6,000  Level Cincinnati TRACON
Wed 03:21:41 PM 38.8547 -84.5147 244° Southwest 174 200 6,000  Level Indianapolis Center
Wed 03:22:43 PM 38.8258 -84.5683 235° Southwest 177 204 6,000  Level Indianapolis Center
Wed 03:23:45 PM 38.7972 -84.6189 234° Southwest 177 204 6,000  Level Indianapolis Center
Wed 03:24:47 PM 38.7692 -84.6706 235° Southwest 176 203 6,000  Level Indianapolis Center
Wed 03:25:49 PM 38.7389 -84.7231 234° Southwest 179 206 6,000  Level Indianapolis Center
Wed 03:26:51 PM 38.7083 -84.7769 234° Southwest 182 209 6,000  Level Indianapolis Center
Wed 03:27:53 PM 38.6756 -84.8408 237° Southwest 184 212 6,000  Level Indianapolis Center
Wed 03:28:55 PM 38.6464 -84.8950 235° Southwest 182 209 6,000 48 Level Indianapolis Center
Wed 03:29:57 PM 38.6192 -84.9483 237° Southwest 183 211 6,100 48 Climbing Indianapolis Center
Wed 03:30:59 PM 38.5886 -85.0031 234° Southwest 186 214 6,100  Level Indianapolis Center
Wed 03:32:01 PM 38.5589 -85.0586 236° Southwest 189 217 6,100 -48 Level Indianapolis Center
Wed 03:33:03 PM 38.5192 -85.1242 232° Southwest 195 224 6,000 -48 Descending Indianapolis Center
Wed 03:34:05 PM 38.4889 -85.1761 233° Southwest 192 221 6,000 -66 Level Indianapolis Center
Wed 03:34:34 PM 38.4775 -85.1981 236° Southwest 177 204 5,900 -490 Descending FAA TRACON SMA TRACON (SMA)
Wed 03:34:54 PM 38.4686 -85.2144 235° Southwest 180 207 5,600 -1,350 Descending FAA TRACON SMA TRACON (SMA)
Wed 03:35:14 PM 38.4556 -85.2350 231° Southwest 190 219 5,000 -1,500 Descending FAA TRACON SMA TRACON (SMA)
Wed 03:35:34 PM 38.4453 -85.2508 230° Southwest 192 221 4,600 -1,610 Descending FAA TRACON SMA TRACON (SMA)
Wed 03:35:55 PM 38.4342 -85.2728 237° Southwest 191 220 3,900 -1,800 Descending FAA TRACON SMA TRACON (SMA)
Wed 03:36:14 PM 38.4228 -85.2878 226° Southwest 192 221 3,400 -1,231 Descending FAA TRACON SMA TRACON (SMA)
Wed 03:36:34 PM 38.4128 -85.3036 231° Southwest 188 216 3,100 -732 Descending FAA TRACON SMA TRACON (SMA)
Wed 03:36:55 PM 38.4006 -85.3214 229° Southwest 177 204 2,900 -293 Descending FAA TRACON SMA TRACON (SMA)
Wed 03:37:15 PM 38.3919 -85.3364 234° Southwest 170 196 2,900  Level FAA TRACON SMA TRACON (SMA)
Wed 03:37:34 PM 38.3825 -85.3503 229° Southwest 169 194 2,900  Level FAA TRACON SMA TRACON (SMA)
Wed 03:37:57 PM 38.3722 -85.3689 235° Southwest 166 191 2,900 140 Level FAA TRACON SMA TRACON (SMA)
Wed 03:38:17 PM 38.3644 -85.3828 234° Southwest 158 182 3,000  Climbing FAA TRACON SMA TRACON (SMA)
Wed 03:38:34 PM 38.3575 -85.3964 237° Southwest 152 175 2,900 -158 Descending FAA TRACON SMA TRACON (SMA)
Wed 03:38:55 PM 38.3503 -85.4103 236° Southwest 150 173 2,900  Level FAA TRACON SMA TRACON (SMA)
Wed 03:39:14 PM 38.3417 -85.4269 237° Southwest 148 170 2,900  Level FAA TRACON SMA TRACON (SMA)
Wed 03:39:35 PM 38.3344 -85.4400 235° Southwest 147 169 2,900  Level FAA TRACON SMA TRACON (SMA)
Wed 03:39:55 PM 38.3250 -85.4561 233° Southwest 148 170 2,900  Level FAA TRACON SMA TRACON (SMA)
Wed 03:40:15 PM 38.3178 -85.4686 234° Southwest 145 167 2,900 -308 Level FAA TRACON SMA TRACON (SMA)
Wed 03:40:34 PM 38.3117 -85.4811 238° Southwest 137 158 2,700 -769 Descending FAA TRACON SMA TRACON (SMA)
Wed 03:40:54 PM 38.3061 -85.4939 241° Southwest 134 154 2,400 -750 Descending FAA TRACON SMA TRACON (SMA)
Wed 03:41:14 PM 38.2986 -85.5097 239° Southwest 136 157 2,200 -300 Descending FAA TRACON SMA TRACON (SMA)
Wed 03:41:34 PM 38.2931 -85.5225 241° Southwest 135 155 2,200  Level FAA TRACON SMA TRACON (SMA)
Wed 03:41:55 PM 38.2875 -85.5347 240° Southwest 130 150 2,200  Level FAA TRACON SMA TRACON (SMA)
Wed 03:42:14 PM 38.2811 -85.5497 242° Southwest 126 145 2,200 -286 Level FAA TRACON SMA TRACON (SMA)
Wed 03:42:37 PM 38.2731 -85.5644 235° Southwest 129 148 2,000 -279 Descending FAA TRACON SMA TRACON (SMA)
Wed 03:42:57 PM 38.2678 -85.5767 241° Southwest 131 151 2,000  Level FAA TRACON SMA TRACON (SMA)
Wed 03:43:14 PM 38.2625 -85.5883 240° Southwest 126 145 2,000 -158 Level FAA TRACON SMA TRACON (SMA)
Wed 03:43:35 PM 38.2569 -85.6000 239° Southwest 123 142 1,900 -600 Descending FAA TRACON SMA TRACON (SMA)
Wed 03:43:54 PM 38.2519 -85.6122 242° Southwest 126 145 1,600 -769 Descending FAA TRACON SMA TRACON (SMA)
Wed 03:44:14 PM 38.2456 -85.6258 239° Southwest 119 137 1,400 -750 Descending FAA TRACON SMA TRACON (SMA)
Wed 03:44:34 PM 38.2408 -85.6361 240° Southwest 109 125 1,100 -900 Descending FAA TRACON SMA TRACON (SMA)
Wed 03:44:54 PM 38.2369 -85.6453 242° Southwest 102 117 800 -585 Descending FAA TRACON SMA TRACON (SMA)
Wed 03:45:15 PM 38.2336 -85.6522 239° Southwest 100 115 700 -286 Descending FAA TRACON SMA TRACON (SMA)
Wed 03:47:00 PM 38.2167 -85.6500 218° Southwest  Level FlightAware Approximate

Login

Don't have an account? Register now (free) for customized features, flight alerts, and more!